createdAt,value
2019-05-28T00:00:02.439Z,9.34
2019-05-28T00:03:05.961Z,9.26
2019-05-28T00:06:13.168Z,9.36
2019-05-28T00:09:19.804Z,9.34
2019-05-28T00:12:26.100Z,9.34
2019-05-28T00:15:32.504Z,9.42
2019-05-28T00:18:39.000Z,9.42
2019-05-28T00:21:46.437Z,9.32
2019-05-28T00:24:52.927Z,9.34
2019-05-28T00:27:59.457Z,9.37
2019-05-28T00:31:05.943Z,9.31
2019-05-28T00:34:13.468Z,9.36
2019-05-28T00:37:19.806Z,9.35
2019-05-28T00:40:26.153Z,9.34
2019-05-28T00:43:32.835Z,9.40
2019-05-28T00:46:39.602Z,9.45
2019-05-28T00:49:49.493Z,9.49
2019-05-28T00:52:54.117Z,9.43
2019-05-28T00:56:00.827Z,9.49
2019-05-28T00:59:07.246Z,9.58
2019-05-28T01:02:13.597Z,9.55
2019-05-28T01:05:20.051Z,9.52
2019-05-28T01:08:26.779Z,9.50
2019-05-28T01:11:33.234Z,9.62
2019-05-28T01:14:39.567Z,9.50
2019-05-28T01:17:46.015Z,9.53
2019-05-28T01:20:52.406Z,9.68
2019-05-28T01:23:58.827Z,9.65
2019-05-28T01:27:05.151Z,9.73
2019-05-28T01:30:11.632Z,9.79
2019-05-28T01:33:18.010Z,9.84
2019-05-28T01:36:24.384Z,9.85
2019-05-28T01:39:30.764Z,9.88
2019-05-28T01:42:37.247Z,9.88
2019-05-28T01:45:43.858Z,9.87
2019-05-28T01:48:50.294Z,10.01
2019-05-28T01:51:56.594Z,10.00
2019-05-28T01:55:03.125Z,9.93
2019-05-28T01:58:09.530Z,9.89
2019-05-28T02:01:15.960Z,9.93
2019-05-28T02:04:22.487Z,9.84
2019-05-28T02:07:31.618Z,9.87
2019-05-28T02:10:38.215Z,9.76
2019-05-28T02:13:44.679Z,9.85
2019-05-28T02:16:51.142Z,9.81
2019-05-28T02:19:57.554Z,9.83
2019-05-28T02:23:04.060Z,9.81
2019-05-28T02:26:10.436Z,9.83
2019-05-28T02:29:16.495Z,9.81
2019-05-28T02:32:23.063Z,9.91
2019-05-28T02:35:29.665Z,9.98
2019-05-28T02:38:35.951Z,9.96
2019-05-28T02:41:42.433Z,9.99
2019-05-28T02:44:49.023Z,9.95
2019-05-28T02:47:55.737Z,10.02
2019-05-28T02:51:03.872Z,10.12
2019-05-28T02:54:10.601Z,10.13
2019-05-28T02:57:17.494Z,10.14
2019-05-28T03:00:23.983Z,10.14
2019-05-28T03:03:31.487Z,10.20
2019-05-28T03:06:39.283Z,10.17
2019-05-28T03:09:47.164Z,10.20
2019-05-28T03:12:53.937Z,10.26
2019-05-28T03:16:03.010Z,10.19
2019-05-28T03:19:09.809Z,10.16
2019-05-28T03:22:17.568Z,10.18
2019-05-28T03:25:24.960Z,10.20
2019-05-28T03:28:31.660Z,10.22
2019-05-28T03:31:38.139Z,10.21
2019-05-28T03:34:44.501Z,10.21
2019-05-28T03:37:51.297Z,10.23
2019-05-28T03:40:57.620Z,10.25
2019-05-28T03:44:04.277Z,10.28
2019-05-28T03:47:10.690Z,10.28
2019-05-28T03:50:17.104Z,10.41
2019-05-28T03:53:23.564Z,10.43
2019-05-28T03:56:29.951Z,10.43
2019-05-28T03:59:36.444Z,10.43
2019-05-28T04:02:42.936Z,10.54
2019-05-28T04:05:49.364Z,10.53
2019-05-28T04:08:55.724Z,10.53
2019-05-28T04:12:03.034Z,10.57
2019-05-28T04:15:09.929Z,10.60
2019-05-28T04:18:16.320Z,10.64
2019-05-28T04:21:22.761Z,10.74
2019-05-28T04:24:29.132Z,10.82
2019-05-28T04:27:35.842Z,10.82
2019-05-28T04:30:42.536Z,10.87
2019-05-28T04:33:48.908Z,10.94
2019-05-28T04:36:55.216Z,11.04
2019-05-28T04:40:01.740Z,11.10
2019-05-28T04:43:08.370Z,11.17
2019-05-28T04:46:14.692Z,11.25
2019-05-28T04:49:21.310Z,11.32
2019-05-28T04:52:30.647Z,11.37
2019-05-28T04:55:36.024Z,11.50
2019-05-28T04:58:42.467Z,11.52
2019-05-28T05:01:49.095Z,11.54
2019-05-28T05:04:55.749Z,11.54
2019-05-28T05:08:02.192Z,11.60
2019-05-28T05:11:08.552Z,11.61
2019-05-28T05:14:15.076Z,11.73
2019-05-28T05:17:21.637Z,11.78
2019-05-28T05:20:27.943Z,11.83
2019-05-28T05:23:34.296Z,11.93
2019-05-28T05:26:40.769Z,11.94
2019-05-28T05:29:47.376Z,11.90
2019-05-28T05:32:53.691Z,11.97
2019-05-28T05:36:00.062Z,12.04
2019-05-28T05:39:08.276Z,12.08
2019-05-28T05:42:15.001Z,12.12
2019-05-28T05:45:23.588Z,12.34
2019-05-28T05:48:29.935Z,12.31
2019-05-28T05:51:36.384Z,12.31
2019-05-28T05:54:43.138Z,12.32
2019-05-28T05:57:49.662Z,12.35
2019-05-28T06:00:56.406Z,12.41
2019-05-28T06:04:03.430Z,12.47
2019-05-28T06:07:10.228Z,12.39
2019-05-28T06:10:16.927Z,12.42
2019-05-28T06:13:23.267Z,12.49
2019-05-28T06:16:29.909Z,12.52
2019-05-28T06:19:36.791Z,12.65
2019-05-28T06:22:43.571Z,12.71
2019-05-28T06:25:51.364Z,12.76
2019-05-28T06:28:57.763Z,12.81
2019-05-28T06:32:04.183Z,12.86
2019-05-28T06:35:10.856Z,12.86
2019-05-28T06:38:17.287Z,12.99
2019-05-28T06:41:23.755Z,13.18
2019-05-28T06:44:30.201Z,13.30
2019-05-28T06:47:36.690Z,13.33
2019-05-28T06:50:43.124Z,13.33
2019-05-28T06:53:49.791Z,13.37
2019-05-28T06:56:56.307Z,13.59
2019-05-28T07:00:02.760Z,13.39
2019-05-28T07:03:09.231Z,13.46
2019-05-28T07:06:16.015Z,13.38
2019-05-28T07:09:22.585Z,13.33
2019-05-28T07:12:29.050Z,13.36
2019-05-28T07:15:35.418Z,13.40
2019-05-28T07:18:41.836Z,13.38
2019-05-28T07:21:48.520Z,13.30
2019-05-28T07:24:54.911Z,13.28
2019-05-28T07:28:11.003Z,13.50
2019-05-28T07:31:10.521Z,13.60
2019-05-28T07:34:30.418Z,13.86
2019-05-28T07:37:24.950Z,14.17
2019-05-28T07:40:32.389Z,14.12
2019-05-28T07:43:39.058Z,14.14
2019-05-28T07:46:45.556Z,14.14
2019-05-28T07:49:52.724Z,14.40
2019-05-28T07:52:59.148Z,14.50
2019-05-28T07:56:05.540Z,14.93
2019-05-28T07:59:12.217Z,14.58
2019-05-28T08:02:18.653Z,14.84
2019-05-28T08:05:24.943Z,14.75
2019-05-28T08:08:31.407Z,14.91
2019-05-28T08:11:39.156Z,15.03
2019-05-28T08:14:45.609Z,15.14
2019-05-28T08:17:51.972Z,15.18
2019-05-28T08:20:58.462Z,14.93
2019-05-28T08:24:05.256Z,14.66
2019-05-28T08:27:11.783Z,14.74
2019-05-28T08:30:18.250Z,14.56
2019-05-28T08:33:24.639Z,14.75
2019-05-28T08:36:31.191Z,14.87
2019-05-28T08:39:37.596Z,14.91
2019-05-28T08:42:43.979Z,14.64
2019-05-28T08:45:50.454Z,14.59
2019-05-28T08:48:57.941Z,14.72
2019-05-28T08:52:04.422Z,14.81
2019-05-28T08:55:11.692Z,14.48
2019-05-28T08:58:18.095Z,14.60
2019-05-28T09:01:25.024Z,14.57
2019-05-28T09:04:32.829Z,14.60
2019-05-28T09:07:39.172Z,14.55
2019-05-28T09:10:45.576Z,14.73
2019-05-28T09:13:52.076Z,14.90
2019-05-28T09:16:58.540Z,14.90
2019-05-28T09:20:05.504Z,14.92
2019-05-28T09:23:12.020Z,15.14
2019-05-28T09:26:19.014Z,15.14
2019-05-28T09:29:25.464Z,15.27
2019-05-28T09:32:31.774Z,15.46
2019-05-28T09:35:46.350Z,15.65
2019-05-28T09:38:48.556Z,15.86
2019-05-28T09:41:55.070Z,15.97
2019-05-28T09:45:01.495Z,16.20
2019-05-28T09:48:07.950Z,15.92
2019-05-28T09:51:14.381Z,16.04
2019-05-28T09:54:20.857Z,16.38
2019-05-28T09:57:27.652Z,16.55
2019-05-28T10:00:36.959Z,16.83
2019-05-28T10:03:43.593Z,16.74
2019-05-28T10:06:50.064Z,16.48
2019-05-28T10:09:57.516Z,16.63
2019-05-28T10:13:05.709Z,16.83
2019-05-28T10:16:12.147Z,16.83
2019-05-28T10:19:18.767Z,17.00
2019-05-28T10:22:25.255Z,16.80
2019-05-28T10:25:31.800Z,16.73
2019-05-28T10:28:38.710Z,16.73
2019-05-28T10:31:45.508Z,16.82
2019-05-28T10:35:03.301Z,17.03
2019-05-28T10:38:01.448Z,16.94
2019-05-28T10:41:07.876Z,16.74
2019-05-28T10:44:14.401Z,17.05
2019-05-28T10:47:21.523Z,16.89
2019-05-28T10:50:28.178Z,16.96
2019-05-28T10:53:35.174Z,17.03
2019-05-28T10:56:42.172Z,17.41
2019-05-28T10:59:48.566Z,17.41
2019-05-28T11:02:55.072Z,17.30
2019-05-28T11:06:02.171Z,17.58
2019-05-28T11:09:09.103Z,17.01
2019-05-28T11:12:15.514Z,17.01
2019-05-28T11:15:23.899Z,17.05
2019-05-28T11:18:30.716Z,16.97
2019-05-28T11:21:37.530Z,16.80
2019-05-28T11:24:43.880Z,16.44
2019-05-28T11:27:50.336Z,16.44
2019-05-28T11:30:57.046Z,16.61
2019-05-28T11:34:03.530Z,17.04
2019-05-28T11:37:10.355Z,17.38
2019-05-28T11:40:17.506Z,17.40
2019-05-28T11:43:24.337Z,17.26
2019-05-28T11:46:30.745Z,17.50
2019-05-28T11:49:37.161Z,17.65
2019-05-28T11:52:43.714Z,18.28
2019-05-28T11:55:50.429Z,18.28
2019-05-28T11:58:57.400Z,18.88
2019-05-28T12:02:05.311Z,18.79
2019-05-28T12:05:14.452Z,18.20
2019-05-28T12:08:21.354Z,18.60
2019-05-28T12:11:27.814Z,18.42
2019-05-28T12:14:34.553Z,18.23
2019-05-28T12:17:44.754Z,17.34
2019-05-28T12:20:49.420Z,17.30
2019-05-28T12:23:55.887Z,17.11
2019-05-28T12:27:02.768Z,17.30
2019-05-28T12:30:09.984Z,17.79
2019-05-28T12:33:16.661Z,17.61
2019-05-28T12:36:23.193Z,16.97
2019-05-28T12:39:29.638Z,16.63
2019-05-28T12:42:36.100Z,16.57
2019-05-28T12:45:42.453Z,16.41
2019-05-28T12:48:48.845Z,16.28
2019-05-28T12:51:55.314Z,16.31
2019-05-28T12:55:01.860Z,15.79
2019-05-28T12:58:09.269Z,14.91
2019-05-28T13:01:15.756Z,15.23
2019-05-28T13:04:22.177Z,14.90
2019-05-28T13:07:28.543Z,14.54
2019-05-28T13:10:35.730Z,14.65
2019-05-28T13:13:42.131Z,14.76
2019-05-28T13:16:48.580Z,14.90
2019-05-28T13:19:54.977Z,15.08
2019-05-28T13:23:01.419Z,15.14
2019-05-28T13:26:08.130Z,14.70
2019-05-28T13:29:14.613Z,14.71
2019-05-28T13:32:21.109Z,14.93
2019-05-28T13:35:28.013Z,14.97
2019-05-28T13:38:34.315Z,14.97
2019-05-28T13:41:40.753Z,14.97
2019-05-28T13:44:47.519Z,14.88
2019-05-28T13:47:53.932Z,15.09
2019-05-28T13:51:00.399Z,15.09
2019-05-28T13:54:07.798Z,15.21
2019-05-28T13:57:14.270Z,15.47
2019-05-28T14:00:21.942Z,15.65
2019-05-28T14:03:28.407Z,15.53
2019-05-28T14:06:34.894Z,15.29
2019-05-28T14:09:41.291Z,15.38
2019-05-28T14:12:48.620Z,15.48
2019-05-28T14:15:56.522Z,15.71
2019-05-28T14:19:03.243Z,15.93
2019-05-28T14:22:09.675Z,15.95
2019-05-28T14:25:17.036Z,15.96
2019-05-28T14:28:23.670Z,16.00
2019-05-28T14:31:30.164Z,16.39
2019-05-28T14:34:36.569Z,16.70
2019-05-28T14:37:43.556Z,17.02
2019-05-28T14:40:50.371Z,16.94
2019-05-28T14:43:56.816Z,16.60
2019-05-28T14:47:03.221Z,16.69
2019-05-28T14:50:10.212Z,17.15
2019-05-28T14:53:16.980Z,17.45
2019-05-28T14:56:23.353Z,17.51
2019-05-28T14:59:30.369Z,17.33
2019-05-28T15:02:36.862Z,17.31
2019-05-28T15:05:43.344Z,17.36
2019-05-28T15:08:50.179Z,17.37
2019-05-28T15:11:56.656Z,17.67
2019-05-28T15:15:03.416Z,17.62
2019-05-28T15:18:09.951Z,17.59
2019-05-28T15:21:16.456Z,17.85
2019-05-28T15:24:23.007Z,18.21
2019-05-28T15:27:29.538Z,17.83
2019-05-28T15:30:36.007Z,18.24
2019-05-28T15:33:42.468Z,17.74
2019-05-28T15:36:49.284Z,17.42
2019-05-28T15:39:57.106Z,17.41
2019-05-28T15:43:06.659Z,17.54
2019-05-28T15:46:12.039Z,17.49
2019-05-28T15:49:18.465Z,17.47
2019-05-28T15:52:25.060Z,17.53
2019-05-28T15:55:31.699Z,17.92
2019-05-28T15:58:38.092Z,17.92
2019-05-28T16:01:44.546Z,17.53
2019-05-28T16:04:51.156Z,17.29
2019-05-28T16:07:57.650Z,17.67
2019-05-28T16:11:04.095Z,17.56
2019-05-28T16:14:10.765Z,17.02
2019-05-28T16:17:17.518Z,17.02
2019-05-28T16:20:24.274Z,16.66
2019-05-28T16:23:30.711Z,16.59
2019-05-28T16:26:37.191Z,16.51
2019-05-28T16:29:43.744Z,16.37
2019-05-28T16:32:50.375Z,16.12
2019-05-28T16:35:56.828Z,16.19
2019-05-28T16:39:03.347Z,16.04
2019-05-28T16:42:11.209Z,15.83
2019-05-28T16:45:18.406Z,15.83
2019-05-28T16:48:24.898Z,15.95
2019-05-28T16:51:31.407Z,15.95
2019-05-28T16:54:37.963Z,16.11
2019-05-28T16:57:44.446Z,15.91
2019-05-28T17:00:50.967Z,15.67
2019-05-28T17:04:00.146Z,15.88
2019-05-28T17:07:07.364Z,15.87
2019-05-28T17:10:30.768Z,15.68
2019-05-28T17:13:22.101Z,15.35
2019-05-28T17:16:28.491Z,15.60
2019-05-28T17:19:35.405Z,15.37
2019-05-28T17:22:43.544Z,15.35
2019-05-28T17:25:50.375Z,15.35
2019-05-28T17:28:57.416Z,15.35
2019-05-28T17:32:06.916Z,15.39
2019-05-28T17:35:17.910Z,15.39
2019-05-28T17:38:25.815Z,15.27
2019-05-28T17:41:33.048Z,15.25
2019-05-28T17:44:39.737Z,15.26
2019-05-28T17:47:46.738Z,15.28
2019-05-28T17:50:53.351Z,15.11
2019-05-28T17:53:59.745Z,15.00
2019-05-28T17:57:06.256Z,14.89
2019-05-28T18:00:13.809Z,14.86
2019-05-28T18:03:20.252Z,14.67
2019-05-28T18:06:26.784Z,14.76
2019-05-28T18:09:33.253Z,14.55
2019-05-28T18:12:39.952Z,14.61
2019-05-28T18:15:46.337Z,14.61
2019-05-28T18:18:52.894Z,14.47
2019-05-28T18:21:59.525Z,14.39
2019-05-28T18:25:06.600Z,14.43
2019-05-28T18:28:13.020Z,14.43
2019-05-28T18:31:19.464Z,14.30
2019-05-28T18:34:26.109Z,14.31
2019-05-28T18:37:32.405Z,14.20
2019-05-28T18:40:38.949Z,14.15
2019-05-28T18:43:45.369Z,14.15
2019-05-28T18:46:52.119Z,14.15
2019-05-28T18:50:03.187Z,14.06
2019-05-28T18:53:06.687Z,14.06
2019-05-28T18:56:17.813Z,14.02
2019-05-28T18:59:24.607Z,14.04
2019-05-28T19:02:31.293Z,14.01
2019-05-28T19:05:37.762Z,14.05
2019-05-28T19:08:47.255Z,13.95
2019-05-28T19:11:55.191Z,13.97
2019-05-28T19:15:01.874Z,13.91
2019-05-28T19:18:08.348Z,13.84
2019-05-28T19:21:14.877Z,13.84
2019-05-28T19:24:23.395Z,13.78
2019-05-28T19:27:31.165Z,13.81
2019-05-28T19:30:37.542Z,13.77
2019-05-28T19:33:44.058Z,13.89
2019-05-28T19:36:50.991Z,13.75
2019-05-28T19:39:57.299Z,13.76
2019-05-28T19:43:03.676Z,13.72
2019-05-28T19:46:10.210Z,13.72
2019-05-28T19:49:17.498Z,13.66
2019-05-28T19:52:23.850Z,13.59
2019-05-28T19:55:30.236Z,13.55
2019-05-28T19:58:36.601Z,13.62
2019-05-28T20:01:43.842Z,13.56
2019-05-28T20:04:50.403Z,13.51
2019-05-28T20:07:56.907Z,13.46
2019-05-28T20:11:03.363Z,13.52
2019-05-28T20:14:11.204Z,13.39
2019-05-28T20:17:17.660Z,13.40
2019-05-28T20:20:24.099Z,13.36
2019-05-28T20:23:30.512Z,13.40
2019-05-28T20:26:37.326Z,13.43
2019-05-28T20:29:46.479Z,13.34
2019-05-28T20:32:54.959Z,13.31
2019-05-28T20:36:01.924Z,13.08
2019-05-28T20:39:10.015Z,13.18
2019-05-28T20:42:26.967Z,13.05
2019-05-28T20:45:24.527Z,13.01
2019-05-28T20:48:31.119Z,13.02
2019-05-28T20:51:37.973Z,13.08
2019-05-28T20:54:44.345Z,13.00
2019-05-28T20:57:51.181Z,13.04
2019-05-28T21:00:57.913Z,12.82
2019-05-28T21:04:04.421Z,12.73
2019-05-28T21:07:11.018Z,12.71
2019-05-28T21:10:17.436Z,12.67
2019-05-28T21:13:23.885Z,12.61
2019-05-28T21:16:30.342Z,12.51
2019-05-28T21:19:37.899Z,12.54
2019-05-28T21:22:44.188Z,12.54
2019-05-28T21:25:52.029Z,12.35
2019-05-28T21:28:58.837Z,12.35
2019-05-28T21:32:05.268Z,12.34
2019-05-28T21:35:11.718Z,12.19
2019-05-28T21:38:18.136Z,12.26
2019-05-28T21:41:24.645Z,12.11
2019-05-28T21:44:31.230Z,11.87
2019-05-28T21:47:37.977Z,11.97
2019-05-28T21:50:44.385Z,11.85
2019-05-28T21:53:51.058Z,11.73
2019-05-28T21:56:57.404Z,11.86
2019-05-28T22:00:04.383Z,11.78
2019-05-28T22:03:12.899Z,11.75
2019-05-28T22:06:20.087Z,11.63
2019-05-28T22:09:26.660Z,11.65
2019-05-28T22:12:34.337Z,11.48
2019-05-28T22:15:40.984Z,11.47
2019-05-28T22:18:47.634Z,11.45
2019-05-28T22:21:54.345Z,11.48
2019-05-28T22:25:00.912Z,11.25
2019-05-28T22:28:07.569Z,11.06
2019-05-28T22:31:15.013Z,11.26
2019-05-28T22:34:21.775Z,11.33
2019-05-28T22:37:28.409Z,11.04
2019-05-28T22:40:35.377Z,11.13
2019-05-28T22:43:42.047Z,11.04
2019-05-28T22:46:48.826Z,10.88
2019-05-28T22:50:12.094Z,10.79
2019-05-28T22:53:03.965Z,10.90
2019-05-28T22:56:10.928Z,10.79
2019-05-28T22:59:17.639Z,10.80
2019-05-28T23:02:24.121Z,10.72
2019-05-28T23:05:30.512Z,10.82
2019-05-28T23:08:37.116Z,10.63
2019-05-28T23:11:43.956Z,10.63
2019-05-28T23:14:50.740Z,10.43
2019-05-28T23:17:57.388Z,10.46
2019-05-28T23:21:04.749Z,10.43
2019-05-28T23:24:11.449Z,10.30
2019-05-28T23:27:17.926Z,10.28
2019-05-28T23:30:25.464Z,10.24
2019-05-28T23:33:32.204Z,10.15
2019-05-28T23:36:38.895Z,10.16
2019-05-28T23:39:45.241Z,10.23
2019-05-28T23:42:52.029Z,10.30
2019-05-28T23:45:58.487Z,10.25
2019-05-28T23:49:06.029Z,10.15
2019-05-28T23:52:12.794Z,10.13
2019-05-28T23:55:19.068Z,10.03
2019-05-28T23:58:25.790Z,10.12
